Time;durP1;ratioP1;P1;durP2;ratioP2;P2;SDS_P1;SDS_P2;PMS_P1;PMS_P2;Temp;Humidity;BMP_temperature;BMP_pressure;BME280_temperature;BME280_humidity;BME280_pressure;Samples;Min_cycle;Max_cycle;Signal;HPM_P1;HPM_P2
2021/08/29 00:00:44;;;;;;;1.13;0.63;;;;;;;;;;5013709;28;20037;-43
2021/08/29 00:03:10;;;;;;;0.70;0.68;;;;;;;;;;5013855;28;20053;-43
2021/08/29 00:05:35;;;;;;;1.75;0.82;;;;;;;;;;5013694;28;20555;-42
2021/08/29 00:08:00;;;;;;;1.63;1.00;;;;;;;;;;5013417;28;20021;-43
2021/08/29 00:10:26;;;;;;;0.80;0.60;;;;;;;;;;5013530;28;20064;-43
2021/08/29 00:12:51;;;;;;;2.47;0.80;;;;;;;;;;5013242;28;20014;-42
2021/08/29 00:15:19;;;;;;;1.48;0.60;;;;;;;;;;5013586;28;20033;-43
2021/08/29 00:17:44;;;;;;;1.25;0.50;;;;;;;;;;5013432;28;20017;-43
2021/08/29 00:20:10;;;;;;;3.35;0.70;;;;;;;;;;5013216;28;20056;-42
2021/08/29 00:22:35;;;;;;;2.03;0.60;;;;;;;;;;5013036;28;20045;-43
2021/08/29 00:25:00;;;;;;;1.08;0.60;;;;;;;;;;5013437;28;20041;-43
2021/08/29 00:27:26;;;;;;;3.63;0.95;;;;;;;;;;5013429;28;20045;-42
2021/08/29 00:29:51;;;;;;;1.35;0.93;;;;;;;;;;5028076;28;20609;-42
2021/08/29 00:32:16;;;;;;;1.50;0.60;;;;;;;;;;5013377;28;20026;-43
2021/08/29 00:34:42;;;;;;;1.75;0.90;;;;;;;;;;5013199;28;20030;-43
2021/08/29 00:37:07;;;;;;;0.73;0.70;;;;;;;;;;5011713;28;20030;-43
2021/08/29 00:39:33;;;;;;;1.02;0.73;;;;;;;;;;5012428;28;20026;-43
2021/08/29 00:41:59;;;;;;;1.05;0.70;;;;;;;;;;5011726;28;20428;-43
2021/08/29 00:44:25;;;;;;;0.98;0.60;;;;;;;;;;5027773;28;20071;-43
2021/08/29 00:46:51;;;;;;;1.20;0.70;;;;;;;;;;5011564;28;20030;-43
2021/08/29 00:49:17;;;;;;;3.03;0.90;;;;;;;;;;5027972;28;20030;-43
2021/08/29 00:51:42;;;;;;;1.98;0.38;;;;;;;;;;5027920;28;20045;-43
2021/08/29 00:54:08;;;;;;;4.13;1.13;;;;;;;;;;5011624;28;20025;-43
2021/08/29 00:56:34;;;;;;;0.70;0.57;;;;;;;;;;5011438;28;20527;-43
2021/08/29 00:59:01;;;;;;;0.80;0.50;;;;;;;;;;5044520;28;20034;-43
2021/08/29 01:01:34;;;;;;;1.00;0.68;;;;;;;;;;5012744;28;20372;-43
2021/08/29 01:04:01;;;;;;;1.38;0.70;;;;;;;;;;5012702;28;20034;-43
2021/08/29 01:06:33;;;;;;;3.85;0.88;;;;;;;;;;5011368;28;20014;-42
2021/08/29 01:09:12;;;;;;;1.77;0.82;;;;;;;;;;5027833;28;20038;-43
2021/08/29 01:11:40;;;;;;;2.08;0.80;;;;;;;;;;5011086;28;20041;-43
2021/08/29 01:14:10;;;;;;;5.63;0.68;;;;;;;;;;5011308;28;20080;-43
2021/08/29 01:16:37;;;;;;;0.70;0.60;;;;;;;;;;5012908;28;20432;-43
2021/08/29 01:19:06;;;;;;;5.93;0.60;;;;;;;;;;5011377;28;20022;-43
2021/08/29 01:21:35;;;;;;;1.00;0.68;;;;;;;;;;5027849;28;20041;-45
2021/08/29 01:24:04;;;;;;;1.45;0.68;;;;;;;;;;5011234;28;20511;-43
2021/08/29 01:26:48;;;;;;;1.00;0.60;;;;;;;;;;5044326;28;20046;-42
2021/08/29 01:29:15;;;;;;;1.70;0.90;;;;;;;;;;5011117;28;20030;-42
2021/08/29 01:31:42;;;;;;;1.98;0.90;;;;;;;;;;5012585;28;20037;-43
2021/08/29 01:34:08;;;;;;;1.38;0.57;;;;;;;;;;5011068;28;20072;-43
2021/08/29 01:36:39;;;;;;;1.10;0.60;;;;;;;;;;5012265;28;20014;-43
2021/08/29 01:39:09;;;;;;;1.95;0.68;;;;;;;;;;5011084;28;20116;-43
2021/08/29 01:41:38;;;;;;;1.27;0.98;;;;;;;;;;5027381;28;20062;-43
2021/08/29 01:44:04;;;;;;;0.60;0.50;;;;;;;;;;5010934;28;20049;-43
2021/08/29 01:46:32;;;;;;;0.98;0.73;;;;;;;;;;5010992;28;20037;-42
2021/08/29 01:49:03;;;;;;;1.58;0.70;;;;;;;;;;5010969;28;20431;-43
2021/08/29 01:51:28;;;;;;;2.50;1.23;;;;;;;;;;5031126;28;20042;-43
2021/08/29 01:53:59;;;;;;;1.45;0.70;;;;;;;;;;5014689;28;20017;-43
2021/08/29 01:56:54;;;;;;;0.80;0.60;;;;;;;;;;5014538;28;20477;-43
2021/08/29 01:59:20;;;;;;;2.25;0.82;;;;;;;;;;5031099;28;20041;-43
2021/08/29 02:01:46;;;;;;;3.33;0.70;;;;;;;;;;5014453;28;20022;-43
2021/08/29 02:04:11;;;;;;;4.00;0.88;;;;;;;;;;5016062;28;20249;-42
2021/08/29 02:06:41;;;;;;;3.15;0.70;;;;;;;;;;5014506;28;20116;-43
2021/08/29 02:09:09;;;;;;;1.10;0.63;;;;;;;;;;5047535;28;20076;-43
2021/08/29 02:11:46;;;;;;;1.23;0.95;;;;;;;;;;5029575;28;20030;-43
2021/08/29 02:14:19;;;;;;;0.80;0.60;;;;;;;;;;5030758;28;20037;-43
2021/08/29 02:16:45;;;;;;;0.88;0.50;;;;;;;;;;5014130;28;20080;-44
2021/08/29 02:19:12;;;;;;;1.17;0.57;;;;;;;;;;5030657;28;20048;-42
2021/08/29 02:21:39;;;;;;;0.98;0.70;;;;;;;;;;5047281;28;20477;-43
2021/08/29 02:24:07;;;;;;;2.92;0.90;;;;;;;;;;5014050;28;20469;-43
2021/08/29 02:26:33;;;;;;;1.42;0.60;;;;;;;;;;5014197;28;20022;-43
2021/08/29 02:29:09;;;;;;;7.68;0.88;;;;;;;;;;5014052;28;20028;-43
2021/08/29 02:31:35;;;;;;;1.63;1.20;;;;;;;;;;5046912;28;20092;-43
2021/08/29 02:34:01;;;;;;;1.38;0.70;;;;;;;;;;5014028;28;20523;-42
2021/08/29 02:36:28;;;;;;;2.15;0.68;;;;;;;;;;5015169;28;20056;-43
2021/08/29 02:38:54;;;;;;;1.45;0.73;;;;;;;;;;5030159;28;20029;-43
2021/08/29 02:41:22;;;;;;;1.88;1.08;;;;;;;;;;5030351;28;20064;-43
2021/08/29 02:43:50;;;;;;;2.20;0.60;;;;;;;;;;5013613;28;20045;-43
2021/08/29 02:46:15;;;;;;;1.38;0.60;;;;;;;;;;5030149;28;20026;-43
2021/08/29 02:48:44;;;;;;;3.28;0.60;;;;;;;;;;5046743;28;20085;-43
2021/08/29 02:51:11;;;;;;;0.93;0.70;;;;;;;;;;5046653;28;20073;-43
2021/08/29 02:53:38;;;;;;;1.58;0.77;;;;;;;;;;5013503;28;20026;-42
2021/08/29 02:56:04;;;;;;;0.77;0.77;;;;;;;;;;5015126;28;20056;-43
2021/08/29 02:58:36;;;;;;;2.95;0.57;;;;;;;;;;5013272;28;20022;-44
2021/08/29 03:01:04;;;;;;;2.78;0.88;;;;;;;;;;5014163;28;20437;-43
2021/08/29 03:03:48;;;;;;;0.85;0.60;;;;;;;;;;5014978;28;20100;-43
2021/08/29 03:06:13;;;;;;;3.60;0.98;;;;;;;;;;5029846;28;20473;-44
2021/08/29 03:08:39;;;;;;;1.20;0.60;;;;;;;;;;5013144;28;20021;-43
2021/08/29 03:11:06;;;;;;;1.60;0.80;;;;;;;;;;5013186;28;20045;-43
2021/08/29 03:13:33;;;;;;;1.48;0.93;;;;;;;;;;5014720;28;20026;-43
2021/08/29 03:16:03;;;;;;;1.38;0.60;;;;;;;;;;5014464;28;20558;-43
2021/08/29 03:18:40;;;;;;;1.05;0.50;;;;;;;;;;5013064;28;20026;-43
2021/08/29 03:21:26;;;;;;;1.98;0.30;;;;;;;;;;5014304;28;20034;-43
2021/08/29 03:23:52;;;;;;;3.63;0.77;;;;;;;;;;5029509;28;20469;-42
2021/08/29 03:26:17;;;;;;;0.95;0.70;;;;;;;;;;5013008;28;20420;-42
2021/08/29 03:28:43;;;;;;;1.45;0.93;;;;;;;;;;5012754;28;20049;-42
2021/08/29 03:31:09;;;;;;;2.05;0.70;;;;;;;;;;5012851;28;20025;-43
2021/08/29 03:33:36;;;;;;;1.88;1.00;;;;;;;;;;5012890;28;20072;-43
2021/08/29 03:36:02;;;;;;;1.02;0.70;;;;;;;;;;5029201;28;20061;-43
2021/08/29 03:38:29;;;;;;;1.55;0.80;;;;;;;;;;5029219;28;20037;-43
2021/08/29 03:40:55;;;;;;;2.60;0.85;;;;;;;;;;5012644;28;20018;-42
2021/08/29 03:43:22;;;;;;;2.70;0.68;;;;;;;;;;5045063;28;20046;-43
2021/08/29 03:45:47;;;;;;;1.15;0.70;;;;;;;;;;5013724;28;20083;-42
2021/08/29 03:48:13;;;;;;;0.90;0.57;;;;;;;;;;5028980;28;20431;-42
2021/08/29 03:50:39;;;;;;;0.80;0.60;;;;;;;;;;5013640;28;20481;-44
2021/08/29 03:53:06;;;;;;;8.73;0.80;;;;;;;;;;5012514;28;20025;-43
2021/08/29 03:55:43;;;;;;;1.60;0.60;;;;;;;;;;5012362;28;20465;-43
2021/08/29 03:58:10;;;;;;;1.75;0.55;;;;;;;;;;5045394;28;20045;-43
2021/08/29 04:00:42;;;;;;;1.38;0.90;;;;;;;;;;5028786;28;20608;-43
2021/08/29 04:03:07;;;;;;;4.07;0.70;;;;;;;;;;5013553;28;20034;-42
2021/08/29 04:06:01;;;;;;;2.25;1.00;;;;;;;;;;5028684;28;20465;-43
2021/08/29 04:08:34;;;;;;;0.55;0.55;;;;;;;;;;5028647;28;20396;-43
2021/08/29 04:11:00;;;;;;;1.10;0.60;;;;;;;;;;5028417;28;20073;-43
2021/08/29 04:13:29;;;;;;;1.95;1.13;;;;;;;;;;5011248;28;20018;-43
2021/08/29 04:15:59;;;;;;;1.98;0.80;;;;;;;;;;5013612;28;20116;-43
2021/08/29 04:18:24;;;;;;;1.75;0.82;;;;;;;;;;5013257;28;20025;-43
2021/08/29 04:20:53;;;;;;;2.42;0.63;;;;;;;;;;5028398;28;20058;-43
2021/08/29 04:23:18;;;;;;;1.20;0.90;;;;;;;;;;5013547;28;20417;-43
2021/08/29 04:25:44;;;;;;;1.13;0.90;;;;;;;;;;5028277;28;20033;-43
2021/08/29 04:28:12;;;;;;;3.00;0.80;;;;;;;;;;5013216;28;20017;-42
2021/08/29 04:30:37;;;;;;;0.82;0.60;;;;;;;;;;5011758;28;20045;-43
2021/08/29 04:33:03;;;;;;;1.23;0.70;;;;;;;;;;5011789;28;20014;-43
2021/08/29 04:35:49;;;;;;;1.55;0.93;;;;;;;;;;5044830;28;20076;-44
2021/08/29 04:38:15;;;;;;;0.98;0.90;;;;;;;;;;5011667;28;20111;-42
2021/08/29 04:40:40;;;;;;;1.52;0.80;;;;;;;;;;5011655;28;20384;-42
2021/08/29 04:43:06;;;;;;;1.42;1.00;;;;;;;;;;5011559;28;20080;-42
2021/08/29 04:45:33;;;;;;;2.55;0.88;;;;;;;;;;5028089;28;20033;-43
2021/08/29 04:48:06;;;;;;;2.00;1.40;;;;;;;;;;5044825;28;20420;-42
2021/08/29 04:50:32;;;;;;;0.85;0.70;;;;;;;;;;5044462;28;20042;-42
2021/08/29 04:52:57;;;;;;;2.00;0.77;;;;;;;;;;5011463;28;20014;-42
2021/08/29 04:55:23;;;;;;;3.28;1.08;;;;;;;;;;5013101;28;20042;-42
2021/08/29 04:57:48;;;;;;;2.10;1.30;;;;;;;;;;5011431;28;20563;-42
2021/08/29 05:00:14;;;;;;;2.00;0.90;;;;;;;;;;5011410;28;20034;-43
2021/08/29 05:02:41;;;;;;;1.13;0.70;;;;;;;;;;5027783;28;20049;-43
2021/08/29 05:05:07;;;;;;;1.85;0.85;;;;;;;;;;5027945;28;20065;-43
2021/08/29 05:07:33;;;;;;;0.77;0.50;;;;;;;;;;5011304;28;20021;-43
2021/08/29 05:09:58;;;;;;;2.03;0.75;;;;;;;;;;5044161;28;20038;-43
2021/08/29 05:12:24;;;;;;;2.30;0.70;;;;;;;;;;5011397;28;20108;-43
2021/08/29 05:14:50;;;;;;;1.55;0.95;;;;;;;;;;5011254;28;20500;-43
2021/08/29 05:17:16;;;;;;;3.53;1.00;;;;;;;;;;5011309;28;20018;-43
2021/08/29 05:19:49;;;;;;;2.40;0.93;;;;;;;;;;5027591;28;20755;-43
2021/08/29 05:22:33;;;;;;;1.40;0.70;;;;;;;;;;5012750;28;20133;-42
2021/08/29 05:25:19;;;;;;;1.52;0.90;;;;;;;;;;5014807;28;20034;-43
2021/08/29 05:27:46;;;;;;;2.25;0.80;;;;;;;;;;5048303;28;20124;-43
2021/08/29 05:30:12;;;;;;;2.30;0.50;;;;;;;;;;5015046;28;20145;-45
2021/08/29 05:32:37;;;;;;;2.78;0.85;;;;;;;;;;5031641;28;20029;-43
2021/08/29 05:35:04;;;;;;;0.85;0.73;;;;;;;;;;5016271;28;20025;-43
2021/08/29 05:37:29;;;;;;;1.08;0.90;;;;;;;;;;5014975;28;20056;-43
2021/08/29 05:40:13;;;;;;;2.05;0.55;;;;;;;;;;5016486;28;20052;-43
2021/08/29 05:42:58;;;;;;;0.50;0.50;;;;;;;;;;5015940;28;20053;-42
2021/08/29 05:45:24;;;;;;;1.25;0.70;;;;;;;;;;5014882;28;20026;-42
2021/08/29 05:47:49;;;;;;;2.15;0.75;;;;;;;;;;5047791;28;20455;-42
2021/08/29 05:50:15;;;;;;;2.88;2.10;;;;;;;;;;5031070;28;20033;-42
2021/08/29 05:52:43;;;;;;;0.98;0.50;;;;;;;;;;5014676;28;20029;-42
2021/08/29 05:55:09;;;;;;;0.95;0.52;;;;;;;;;;5047913;28;20030;-42
2021/08/29 05:57:34;;;;;;;1.05;0.50;;;;;;;;;;5014603;28;20099;-42
2021/08/29 06:00:00;;;;;;;1.27;0.77;;;;;;;;;;5015685;28;20030;-42
2021/08/29 06:02:25;;;;;;;0.93;0.50;;;;;;;;;;5016128;28;20069;-42
2021/08/29 06:04:51;;;;;;;0.95;0.65;;;;;;;;;;5014385;28;20022;-42
2021/08/29 06:07:24;;;;;;;0.80;0.80;;;;;;;;;;5014536;28;20049;-42
2021/08/29 06:09:58;;;;;;;0.75;0.47;;;;;;;;;;5014154;28;20515;-43
2021/08/29 06:12:23;;;;;;;0.85;0.85;;;;;;;;;;5014254;28;20022;-42
2021/08/29 06:14:49;;;;;;;1.30;0.80;;;;;;;;;;5014261;28;20017;-43
2021/08/29 06:17:15;;;;;;;3.55;1.00;;;;;;;;;;5047527;28;20058;-42
2021/08/29 06:19:40;;;;;;;1.25;0.70;;;;;;;;;;5014105;28;20489;-42
2021/08/29 06:22:06;;;;;;;1.70;0.82;;;;;;;;;;5030688;28;20396;-42
2021/08/29 06:24:37;;;;;;;1.08;0.75;;;;;;;;;;5014194;28;20109;-42
2021/08/29 06:27:21;;;;;;;1.92;0.90;;;;;;;;;;5015521;28;20068;-42
2021/08/29 06:30:05;;;;;;;1.05;0.73;;;;;;;;;;5015307;28;20084;-42
2021/08/29 06:33:03;;;;;;;5.28;0.60;;;;;;;;;;5013922;28;20551;-42
2021/08/29 06:35:34;;;;;;;3.67;1.00;;;;;;;;;;5013545;28;20022;-42
2021/08/29 06:38:03;;;;;;;1.27;0.88;;;;;;;;;;5046432;28;20038;-42
2021/08/29 06:40:29;;;;;;;1.95;0.50;;;;;;;;;;5013863;28;20026;-42
2021/08/29 06:42:54;;;;;;;0.77;0.30;;;;;;;;;;5046662;28;20066;-42
2021/08/29 06:45:46;;;;;;;0.63;0.40;;;;;;;;;;5013860;28;20146;-42
2021/08/29 06:48:37;;;;;;;0.77;0.70;;;;;;;;;;5021500;28;20034;-42
2021/08/29 06:51:38;;;;;;;0.52;0.52;;;;;;;;;;5012655;28;20483;-42
2021/08/29 06:54:04;;;;;;;1.65;0.47;;;;;;;;;;5014623;28;20032;-42
2021/08/29 06:56:49;;;;;;;2.45;0.77;;;;;;;;;;5014794;28;20472;-42
2021/08/29 06:59:21;;;;;;;1.00;0.55;;;;;;;;;;5046656;28;20061;-42
2021/08/29 07:01:47;;;;;;;0.77;0.43;;;;;;;;;;5013383;28;20030;-42
2021/08/29 07:04:13;;;;;;;1.63;0.70;;;;;;;;;;5013501;28;20025;-43
2021/08/29 07:06:38;;;;;;;0.50;0.45;;;;;;;;;;5013373;28;20033;-42
2021/08/29 07:09:24;;;;;;;3.28;0.60;;;;;;;;;;5023148;28;20026;-42
2021/08/29 07:11:51;;;;;;;0.82;0.68;;;;;;;;;;5029578;28;20038;-43
2021/08/29 07:14:39;;;;;;;0.43;0.28;;;;;;;;;;5016263;28;20113;-43
2021/08/29 07:17:05;;;;;;;1.02;0.55;;;;;;;;;;5014428;28;20535;-42
2021/08/29 07:19:30;;;;;;;0.80;0.50;;;;;;;;;;5013165;28;20024;-43
2021/08/29 07:22:22;;;;;;;2.13;0.40;;;;;;;;;;5020796;28;20452;-42
2021/08/29 07:25:06;;;;;;;0.45;0.38;;;;;;;;;;5014363;28;20072;-42
2021/08/29 07:27:50;;;;;;;1.00;0.60;;;;;;;;;;5014263;28;20036;-42
2021/08/29 07:30:34;;;;;;;0.55;0.38;;;;;;;;;;5014131;28;20053;-42
2021/08/29 07:33:11;;;;;;;0.25;0.20;;;;;;;;;;5012951;28;20037;-42
2021/08/29 07:35:46;;;;;;;0.75;0.30;;;;;;;;;;5029499;28;20030;-42
2021/08/29 07:38:47;;;;;;;0.20;0.17;;;;;;;;;;5004331;28;20029;-42
2021/08/29 07:41:12;;;;;;;0.82;0.43;;;;;;;;;;5045862;28;20037;-43
2021/08/29 07:43:38;;;;;;;1.30;1.20;;;;;;;;;;5012467;28;20397;-42
2021/08/29 07:46:07;;;;;;;1.55;0.70;;;;;;;;;;5029124;28;20033;-42
2021/08/29 07:48:33;;;;;;;0.82;0.50;;;;;;;;;;5028884;28;20370;-42
2021/08/29 07:50:58;;;;;;;0.60;0.57;;;;;;;;;;5028858;28;20105;-43
2021/08/29 07:53:31;;;;;;;5.32;0.50;;;;;;;;;;5012832;28;20128;-42
2021/08/29 07:56:25;;;;;;;0.85;0.45;;;;;;;;;;5011565;28;20041;-43
2021/08/29 07:58:51;;;;;;;0.88;0.50;;;;;;;;;;5013756;28;20092;-43
2021/08/29 08:01:16;;;;;;;0.55;0.30;;;;;;;;;;5012425;28;20029;-42
2021/08/29 08:04:00;;;;;;;3.40;0.50;;;;;;;;;;5013609;28;20048;-42
2021/08/29 08:06:43;;;;;;;0.90;0.47;;;;;;;;;;5013519;28;20056;-42
2021/08/29 08:09:27;;;;;;;0.45;0.40;;;;;;;;;;5040674;28;20096;-43
2021/08/29 08:12:11;;;;;;;0.30;0.30;;;;;;;;;;5013675;28;20508;-43
2021/08/29 08:14:37;;;;;;;0.70;0.40;;;;;;;;;;5013499;28;20108;-42
2021/08/29 08:17:02;;;;;;;0.47;0.20;;;;;;;;;;5012059;28;20395;-42
2021/08/29 08:19:35;;;;;;;;;;;;;;;;;;5045399;28;20125;-43
2021/08/29 08:22:01;;;;;;;0.40;0.22;;;;;;;;;;5028401;28;20003;-42
2021/08/29 08:24:39;;;;;;;0.63;0.35;;;;;;;;;;5028546;28;20032;-42
2021/08/29 08:27:24;;;;;;;0.30;0.20;;;;;;;;;;5021888;28;20030;-43
2021/08/29 08:30:09;;;;;;;0.28;0.25;;;;;;;;;;5013081;28;20049;-42
2021/08/29 08:32:57;;;;;;;0.57;0.50;;;;;;;;;;5020977;28;20038;-42
2021/08/29 08:35:55;;;;;;;0.38;0.30;;;;;;;;;;4990296;28;20362;-43
2021/08/29 08:38:43;;;;;;;0.30;0.20;;;;;;;;;;5021065;28;20038;-42
2021/08/29 08:41:21;;;;;;;0.32;0.20;;;;;;;;;;5026477;28;20037;-42
2021/08/29 08:44:06;;;;;;;0.10;0.10;;;;;;;;;;5012949;28;20147;-42
2021/08/29 08:46:51;;;;;;;0.10;0.10;;;;;;;;;;5013025;28;20060;-42
2021/08/29 08:49:35;;;;;;;0.45;0.32;;;;;;;;;;5012968;28;20096;-42
2021/08/29 08:52:23;;;;;;;0.32;0.28;;;;;;;;;;5013222;28;20104;-42
2021/08/29 08:55:08;;;;;;;0.20;0.20;;;;;;;;;;5012904;28;20037;-43
2021/08/29 08:58:00;;;;;;;0.30;0.30;;;;;;;;;;5004213;28;20120;-42
2021/08/29 09:00:45;;;;;;;0.20;0.20;;;;;;;;;;5043948;28;20114;-42
2021/08/29 09:03:43;;;;;;;0.20;0.20;;;;;;;;;;5002029;28;20069;-42
2021/08/29 09:06:11;;;;;;;2.38;0.20;;;;;;;;;;5011455;28;20105;-42
2021/08/29 09:08:37;;;;;;;0.55;0.25;;;;;;;;;;5012584;28;20101;-42
2021/08/29 09:11:03;;;;;;;0.20;0.20;;;;;;;;;;5011212;28;20045;-43
2021/08/29 09:14:02;;;;;;;0.50;0.30;;;;;;;;;;5011401;28;20025;-42
2021/08/29 09:16:28;;;;;;;0.20;0.20;;;;;;;;;;5000585;28;20034;-42
2021/08/29 09:18:55;;;;;;;0.17;0.17;;;;;;;;;;5011252;28;20018;-42
2021/08/29 09:21:22;;;;;;;0.10;0.10;;;;;;;;;;5011243;28;20485;-42
2021/08/29 09:23:48;;;;;;;0.10;0.10;;;;;;;;;;5011131;28;20113;-43
2021/08/29 09:26:38;;;;;;;0.25;0.20;;;;;;;;;;5015325;28;20045;-42
2021/08/29 09:29:22;;;;;;;0.20;0.20;;;;;;;;;;5011213;28;20041;-42
2021/08/29 09:31:49;;;;;;;0.28;0.20;;;;;;;;;;5044156;28;20038;-42
2021/08/29 09:34:23;;;;;;;0.22;0.22;;;;;;;;;;5011193;28;20018;-42
2021/08/29 09:36:58;;;;;;;0.10;0.10;;;;;;;;;;5011085;28;20052;-42
2021/08/29 09:39:38;;;;;;;0.20;0.10;;;;;;;;;;5027492;28;20030;-42
2021/08/29 09:42:28;;;;;;;0.10;0.10;;;;;;;;;;5011146;28;20389;-42
2021/08/29 09:45:20;;;;;;;0.22;0.20;;;;;;;;;;5043864;28;20513;-42
2021/08/29 09:48:05;;;;;;;1.20;0.10;;;;;;;;;;5012480;28;20084;-42
2021/08/29 09:50:56;;;;;;;0.32;0.20;;;;;;;;;;5012191;28;20048;-42
2021/08/29 09:53:43;;;;;;;0.20;0.20;;;;;;;;;;5027521;28;20103;-42
2021/08/29 09:56:21;;;;;;;0.43;0.20;;;;;;;;;;5044078;28;20034;-42
2021/08/29 09:59:12;;;;;;;0.20;0.20;;;;;;;;;;5014054;28;20038;-43
2021/08/29 10:01:58;;;;;;;0.38;0.20;;;;;;;;;;5012149;28;20053;-43
2021/08/29 10:04:33;;;;;;;0.10;0.10;;;;;;;;;;5012224;28;20028;-42
2021/08/29 10:07:10;;;;;;;0.32;0.28;;;;;;;;;;5043735;28;20519;-42
2021/08/29 10:09:36;;;;;;;0.50;0.30;;;;;;;;;;5010763;28;20068;-42
2021/08/29 10:12:10;;;;;;;0.10;0.10;;;;;;;;;;5015334;28;20052;-42
2021/08/29 10:14:37;;;;;;;0.40;0.20;;;;;;;;;;5014313;28;20409;-43
2021/08/29 10:17:21;;;;;;;0.10;0.10;;;;;;;;;;5015910;28;20033;-41
2021/08/29 10:20:10;;;;;;;0.65;0.20;;;;;;;;;;5015599;28;20485;-42
2021/08/29 10:22:56;;;;;;;0.10;0.10;;;;;;;;;;5015430;28;20096;-42
2021/08/29 10:25:23;;;;;;;0.13;0.10;;;;;;;;;;5015777;28;20034;-43
2021/08/29 10:27:49;;;;;;;0.15;0.15;;;;;;;;;;5015486;28;20026;-42
2021/08/29 10:30:42;;;;;;;0.20;0.10;;;;;;;;;;5016009;28;20543;-42
2021/08/29 10:33:27;;;;;;;0.50;0.30;;;;;;;;;;5015621;28;20092;-42
2021/08/29 10:35:55;;;;;;;0.22;0.20;;;;;;;;;;5013920;28;20026;-43
2021/08/29 10:38:41;;;;;;;0.40;0.20;;;;;;;;;;5014554;28;20104;-42
2021/08/29 10:41:25;;;;;;;0.10;0.10;;;;;;;;;;5015178;28;20044;-43
2021/08/29 10:43:57;;;;;;;0.30;0.20;;;;;;;;;;5013583;28;20038;-42
2021/08/29 10:46:44;;;;;;;0.20;0.15;;;;;;;;;;5015777;28;20468;-42
2021/08/29 10:49:28;;;;;;;0.32;0.30;;;;;;;;;;5015144;28;20084;-42
2021/08/29 10:51:55;;;;;;;0.45;0.30;;;;;;;;;;5030025;28;20046;-42
2021/08/29 10:54:20;;;;;;;3.50;0.25;;;;;;;;;;5013666;28;20028;-42
2021/08/29 10:56:48;;;;;;;0.20;0.20;;;;;;;;;;5013478;28;20400;-43
2021/08/29 10:59:22;;;;;;;0.20;0.20;;;;;;;;;;5013497;28;20075;-43
2021/08/29 11:01:51;;;;;;;0.15;0.13;;;;;;;;;;5013455;28;20388;-42
2021/08/29 11:04:35;;;;;;;0.25;0.20;;;;;;;;;;5015004;28;20057;-42
2021/08/29 11:07:07;;;;;;;0.30;0.20;;;;;;;;;;5029968;28;20025;-42
2021/08/29 11:09:38;;;;;;;0.20;0.20;;;;;;;;;;5013181;28;20041;-42
2021/08/29 11:12:19;;;;;;;1.00;0.20;;;;;;;;;;5029323;28;20077;-43
2021/08/29 11:14:52;;;;;;;1.10;0.30;;;;;;;;;;5046355;28;20030;-42
2021/08/29 11:17:19;;;;;;;0.98;0.30;;;;;;;;;;5014440;28;20052;-43
2021/08/29 11:20:01;;;;;;;0.10;0.10;;;;;;;;;;5013155;28;20021;-42
2021/08/29 11:23:05;;;;;;;;;;;;;;;;;;5031680;28;20038;-42
2021/08/29 11:25:36;;;;;;;1.08;0.35;;;;;;;;;;5031787;28;20345;-42
2021/08/29 11:28:31;;;;;;;0.73;0.20;;;;;;;;;;5021083;28;20044;-42
2021/08/29 11:31:48;;;;;;;0.22;0.20;;;;;;;;;;5005032;28;20401;-42
2021/08/29 11:34:14;;;;;;;0.30;0.30;;;;;;;;;;4993774;28;20038;-43
2021/08/29 11:36:40;;;;;;;0.38;0.10;;;;;;;;;;5029231;28;20021;-42
2021/08/29 11:39:24;;;;;;;0.85;0.30;;;;;;;;;;5014147;28;20048;-43
2021/08/29 11:42:09;;;;;;;0.20;0.10;;;;;;;;;;5029178;28;20034;-43
2021/08/29 11:44:35;;;;;;;0.68;0.32;;;;;;;;;;5012246;28;20081;-42
2021/08/29 11:47:00;;;;;;;0.35;0.20;;;;;;;;;;5012537;28;20030;-42
2021/08/29 11:49:51;;;;;;;0.10;0.10;;;;;;;;;;5028887;28;20034;-42
2021/08/29 11:52:25;;;;;;;0.10;0.10;;;;;;;;;;5012537;28;20115;-42
2021/08/29 11:55:02;;;;;;;0.63;0.63;;;;;;;;;;5013673;28;20021;-42
2021/08/29 11:57:27;;;;;;;0.17;0.17;;;;;;;;;;5012416;28;20037;-42
2021/08/29 12:00:03;;;;;;;0.20;0.20;;;;;;;;;;5012315;28;20022;-43
2021/08/29 12:02:43;;;;;;;0.10;0.10;;;;;;;;;;5013614;28;20045;-41
2021/08/29 12:05:13;;;;;;;0.40;0.28;;;;;;;;;;5012434;28;20026;-42
2021/08/29 12:07:50;;;;;;;0.10;0.10;;;;;;;;;;5013672;28;20104;-42
2021/08/29 12:10:35;;;;;;;0.55;0.20;;;;;;;;;;5013670;28;20048;-42
2021/08/29 12:13:28;;;;;;;0.30;0.30;;;;;;;;;;5005178;28;20034;-42
2021/08/29 12:16:12;;;;;;;3.50;0.25;;;;;;;;;;5013758;28;20065;-43
2021/08/29 12:19:00;;;;;;;0.30;0.30;;;;;;;;;;5007595;28;20030;-42
2021/08/29 12:21:49;;;;;;;0.20;0.20;;;;;;;;;;5021291;28;20540;-42
2021/08/29 12:24:35;;;;;;;0.22;0.20;;;;;;;;;;5013307;28;20077;-42
2021/08/29 12:27:11;;;;;;;0.40;0.25;;;;;;;;;;5045044;28;20030;-42
2021/08/29 12:29:46;;;;;;;2.97;0.30;;;;;;;;;;5028260;28;20499;-42
2021/08/29 12:32:13;;;;;;;0.43;0.35;;;;;;;;;;5028373;28;20038;-43
2021/08/29 12:34:38;;;;;;;0.13;0.13;;;;;;;;;;5027586;28;20018;-42
2021/08/29 12:37:05;;;;;;;0.28;0.20;;;;;;;;;;5011654;28;20041;-42
2021/08/29 12:39:31;;;;;;;0.47;0.13;;;;;;;;;;5011812;28;20014;-42
2021/08/29 12:42:12;;;;;;;0.30;0.30;;;;;;;;;;5044695;28;20068;-42
2021/08/29 12:44:44;;;;;;;0.13;0.13;;;;;;;;;;5011500;28;20140;-42
2021/08/29 12:47:10;;;;;;;0.47;0.30;;;;;;;;;;5013186;28;20080;-42
2021/08/29 12:49:36;;;;;;;1.27;0.30;;;;;;;;;;5013063;28;20420;-42
2021/08/29 12:52:02;;;;;;;1.35;0.38;;;;;;;;;;5012761;28;20065;-42
2021/08/29 12:54:28;;;;;;;0.13;0.10;;;;;;;;;;5012862;28;20096;-42
2021/08/29 12:56:53;;;;;;;0.70;0.30;;;;;;;;;;5012725;28;20328;-42
2021/08/29 12:59:28;;;;;;;0.55;0.17;;;;;;;;;;5012666;28;20500;-42
2021/08/29 13:01:54;;;;;;;0.32;0.10;;;;;;;;;;5012656;28;20132;-42
2021/08/29 13:04:37;;;;;;;0.20;0.10;;;;;;;;;;5012956;28;20101;-42
2021/08/29 13:07:02;;;;;;;;;;;;;;;;;;5013377;28;20092;-42
2021/08/29 13:09:28;;;;;;;0.10;0.10;;;;;;;;;;5012690;28;19905;-42
2021/08/29 13:11:53;;;;;;;0.43;0.30;;;;;;;;;;5027526;28;20042;-42
2021/08/29 13:14:29;;;;;;;0.30;0.20;;;;;;;;;;5012714;28;20014;-42
2021/08/29 13:16:55;;;;;;;0.80;0.20;;;;;;;;;;5012796;28;20030;-42
2021/08/29 13:19:27;;;;;;;0.22;0.20;;;;;;;;;;5012511;28;20499;-42
2021/08/29 13:21:56;;;;;;;1.25;0.40;;;;;;;;;;5011865;28;20117;-43
2021/08/29 13:24:31;;;;;;;0.80;0.25;;;;;;;;;;5012447;28;20473;-43
2021/08/29 13:26:57;;;;;;;0.43;0.22;;;;;;;;;;5012665;28;20492;-42
2021/08/29 13:29:33;;;;;;;0.30;0.30;;;;;;;;;;5012401;28;20014;-42
2021/08/29 13:31:59;;;;;;;2.58;0.43;;;;;;;;;;5012525;28;20392;-42
2021/08/29 13:34:30;;;;;;;0.28;0.10;;;;;;;;;;5012461;28;20018;-42
2021/08/29 13:36:56;;;;;;;0.30;0.20;;;;;;;;;;5012590;28;20140;-42
2021/08/29 13:39:24;;;;;;;0.80;0.10;;;;;;;;;;5012367;28;20050;-43
2021/08/29 13:42:06;;;;;;;0.20;0.20;;;;;;;;;;5012309;28;20041;-43
2021/08/29 13:44:31;;;;;;;0.32;0.20;;;;;;;;;;5012285;28;20050;-43
2021/08/29 13:47:00;;;;;;;0.20;0.20;;;;;;;;;;5015573;28;20037;-44
2021/08/29 13:49:26;;;;;;;0.15;0.15;;;;;;;;;;5016014;28;20105;-43
2021/08/29 13:51:51;;;;;;;0.20;0.20;;;;;;;;;;5016262;28;20029;-42
2021/08/29 13:54:16;;;;;;;0.20;0.20;;;;;;;;;;5016077;28;20506;-42
2021/08/29 13:56:42;;;;;;;0.50;0.10;;;;;;;;;;5015980;28;20026;-42
2021/08/29 13:59:07;;;;;;;0.75;0.30;;;;;;;;;;5016141;28;20038;-42
2021/08/29 14:01:33;;;;;;;0.82;0.38;;;;;;;;;;5016001;28;20411;-42
2021/08/29 14:03:58;;;;;;;0.57;0.30;;;;;;;;;;5016045;28;20083;-42
2021/08/29 14:06:23;;;;;;;0.15;0.15;;;;;;;;;;5014616;28;20061;-42
2021/08/29 14:08:49;;;;;;;0.35;0.35;;;;;;;;;;5015694;28;20025;-42
2021/08/29 14:11:14;;;;;;;0.25;0.25;;;;;;;;;;5015686;28;20032;-42
2021/08/29 14:13:40;;;;;;;0.10;0.10;;;;;;;;;;5015742;28;20029;-43
2021/08/29 14:16:05;;;;;;;0.40;0.20;;;;;;;;;;5015606;28;20026;-42
2021/08/29 14:18:31;;;;;;;0.50;0.20;;;;;;;;;;5015820;28;20034;-42
2021/08/29 14:20:56;;;;;;;0.85;0.20;;;;;;;;;;5015726;28;20018;-44
2021/08/29 14:23:21;;;;;;;0.10;0.10;;;;;;;;;;5015487;28;20465;-42
2021/08/29 14:25:47;;;;;;;2.10;0.40;;;;;;;;;;5015334;28;20080;-42
2021/08/29 14:28:14;;;;;;;0.15;0.10;;;;;;;;;;5015433;28;20022;-42
2021/08/29 14:30:39;;;;;;;0.20;0.20;;;;;;;;;;5015320;28;20421;-42
2021/08/29 14:33:06;;;;;;;0.52;0.30;;;;;;;;;;5015191;28;20034;-42
2021/08/29 14:35:32;;;;;;;1.95;0.40;;;;;;;;;;5015344;28;20558;-42
2021/08/29 14:37:57;;;;;;;10.45;0.63;;;;;;;;;;5015129;28;20057;-42
2021/08/29 14:40:23;;;;;;;0.10;0.10;;;;;;;;;;5015138;28;20092;-42
2021/08/29 14:42:50;;;;;;;0.50;0.20;;;;;;;;;;5014952;28;20033;-42
2021/08/29 14:45:16;;;;;;;0.20;0.20;;;;;;;;;;5015155;28;20050;-42
2021/08/29 14:47:41;;;;;;;0.52;0.22;;;;;;;;;;5015247;28;20046;-42
2021/08/29 14:50:08;;;;;;;0.35;0.20;;;;;;;;;;5014837;28;20029;-43
2021/08/29 14:52:34;;;;;;;0.45;0.30;;;;;;;;;;5013717;28;20042;-43
2021/08/29 14:54:59;;;;;;;0.32;0.20;;;;;;;;;;5013577;28;20026;-42
2021/08/29 14:57:25;;;;;;;0.20;0.20;;;;;;;;;;5014216;28;20068;-42
2021/08/29 14:59:50;;;;;;;1.65;0.30;;;;;;;;;;5015027;28;20523;-42
2021/08/29 15:02:16;;;;;;;0.98;0.30;;;;;;;;;;5015042;28;20030;-42
2021/08/29 15:04:41;;;;;;;0.20;0.20;;;;;;;;;;5015017;28;20457;-42
2021/08/29 15:07:07;;;;;;;1.40;0.65;;;;;;;;;;5014507;28;20041;-42
2021/08/29 15:09:32;;;;;;;3.75;0.40;;;;;;;;;;5014933;28;20033;-42
2021/08/29 15:11:57;;;;;;;0.20;0.15;;;;;;;;;;5014515;28;20100;-42